createdAt,value
2023-05-08T00:00:44.168Z,0.98
2023-05-08T00:01:46.937Z,0.95
2023-05-08T00:02:50.029Z,0.83
2023-05-08T00:03:53.638Z,0.82
2023-05-08T00:04:57.081Z,0.99
2023-05-08T00:06:00.175Z,1.10
2023-05-08T00:07:03.457Z,0.87
2023-05-08T00:08:06.438Z,1.10
2023-05-08T00:09:09.103Z,1.07
2023-05-08T00:10:12.391Z,1.02
2023-05-08T00:11:15.572Z,0.95
2023-05-08T00:12:18.449Z,1.10
2023-05-08T00:13:21.659Z,0.93
2023-05-08T00:14:24.608Z,1.22
2023-05-08T00:15:27.373Z,1.06
2023-05-08T00:16:31.316Z,1.03
2023-05-08T00:17:34.333Z,1.06
2023-05-08T00:18:37.237Z,0.98
2023-05-08T00:19:40.215Z,1.10
2023-05-08T00:20:43.189Z,1.30
2023-05-08T00:21:46.269Z,1.10
2023-05-08T00:22:49.552Z,1.25
2023-05-08T00:23:52.525Z,1.16
2023-05-08T00:24:55.716Z,1.11
2023-05-08T00:25:58.684Z,1.12
2023-05-08T00:27:01.775Z,1.27
2023-05-08T00:28:04.653Z,1.05
2023-05-08T00:29:07.516Z,1.42
2023-05-08T00:30:10.713Z,1.28
2023-05-08T00:31:13.678Z,0.95
2023-05-08T00:32:16.811Z,1.16
2023-05-08T00:33:19.537Z,1.01
2023-05-08T00:34:22.309Z,1.06
2023-05-08T00:35:25.163Z,1.33
2023-05-08T00:36:28.036Z,1.18
2023-05-08T00:37:31.037Z,1.22
2023-05-08T00:38:34.096Z,0.78
2023-05-08T00:39:37.123Z,0.80
2023-05-08T00:40:40.578Z,0.93
2023-05-08T00:41:43.550Z,0.72
2023-05-08T00:42:47.132Z,1.03
2023-05-08T00:43:50.012Z,1.14
2023-05-08T00:44:53.085Z,1.05
2023-05-08T00:45:56.210Z,1.30
2023-05-08T00:46:59.157Z,1.43
2023-05-08T00:48:02.697Z,1.39
2023-05-08T00:49:05.720Z,1.00
2023-05-08T00:50:08.703Z,0.88
2023-05-08T00:51:11.681Z,0.98
2023-05-08T00:52:14.754Z,0.92
2023-05-08T00:53:18.557Z,1.19
2023-05-08T00:54:21.630Z,1.16
2023-05-08T00:55:24.807Z,0.63
2023-05-08T00:56:27.782Z,1.02
2023-05-08T00:57:30.668Z,1.21
2023-05-08T00:58:33.842Z,1.07
2023-05-08T00:59:36.735Z,0.99
2023-05-08T01:00:39.888Z,1.50
2023-05-08T01:01:42.912Z,1.85
2023-05-08T01:02:47.296Z,0.90
2023-05-08T01:03:51.242Z,0.95
2023-05-08T01:04:54.278Z,0.91
2023-05-08T01:05:57.361Z,0.94
2023-05-08T01:07:00.416Z,0.78
2023-05-08T01:08:03.401Z,0.87
2023-05-08T01:09:06.579Z,0.89
2023-05-08T01:10:09.594Z,0.84
2023-05-08T01:11:12.533Z,1.02
2023-05-08T01:12:15.533Z,0.97
2023-05-08T01:13:18.729Z,1.52
2023-05-08T01:14:22.287Z,1.59
2023-05-08T01:15:25.379Z,1.47
2023-05-08T01:16:28.625Z,0.90
2023-05-08T01:17:31.866Z,0.82
2023-05-08T01:18:35.019Z,1.52
2023-05-08T01:19:38.197Z,1.61
2023-05-08T01:20:41.374Z,1.20
2023-05-08T01:21:44.580Z,0.98
2023-05-08T01:22:47.445Z,0.83
2023-05-08T01:23:50.000Z,1.02
2023-05-08T01:24:52.973Z,1.08
2023-05-08T01:25:56.429Z,1.23
2023-05-08T01:26:59.335Z,1.28
2023-05-08T01:28:02.105Z,1.02
2023-05-08T01:29:04.880Z,1.18
2023-05-08T01:30:08.281Z,2.05
2023-05-08T01:31:10.936Z,1.82
2023-05-08T01:32:13.723Z,1.25
2023-05-08T01:33:16.662Z,1.12
2023-05-08T01:34:19.568Z,1.09
2023-05-08T01:35:22.549Z,1.00
2023-05-08T01:36:25.438Z,0.85
2023-05-08T01:37:28.096Z,1.03
2023-05-08T01:38:30.984Z,0.96
2023-05-08T01:39:33.731Z,0.99
2023-05-08T01:40:36.725Z,1.18
2023-05-08T01:41:39.614Z,1.02
2023-05-08T01:42:42.666Z,1.39
2023-05-08T01:43:45.497Z,1.60
2023-05-08T01:44:48.731Z,1.00
2023-05-08T01:45:51.900Z,1.00
2023-05-08T01:46:55.010Z,1.01
2023-05-08T01:47:57.974Z,0.96
2023-05-08T01:49:01.038Z,0.84
2023-05-08T01:50:04.021Z,0.89
2023-05-08T01:51:07.194Z,0.88
2023-05-08T01:52:10.074Z,1.08
2023-05-08T01:53:13.467Z,1.22
2023-05-08T01:54:17.469Z,1.74
2023-05-08T01:55:20.335Z,1.46
2023-05-08T01:56:23.866Z,0.86
2023-05-08T01:57:27.926Z,1.15
2023-05-08T01:58:30.900Z,1.01
2023-05-08T01:59:33.479Z,1.20
2023-05-08T02:00:36.246Z,1.15
2023-05-08T02:01:39.225Z,0.98
2023-05-08T02:02:42.012Z,1.01
2023-05-08T02:03:44.783Z,1.08
2023-05-08T02:04:47.434Z,1.65
2023-05-08T02:05:50.316Z,1.11
2023-05-08T02:06:53.293Z,1.37
2023-05-08T02:07:55.965Z,0.92
2023-05-08T02:08:58.643Z,1.26
2023-05-08T02:10:01.293Z,0.97
2023-05-08T02:11:04.071Z,1.49
2023-05-08T02:12:07.354Z,1.59
2023-05-08T02:13:09.994Z,1.22
2023-05-08T02:14:12.697Z,1.07
2023-05-08T02:15:15.582Z,1.22
2023-05-08T02:16:18.378Z,1.27
2023-05-08T02:17:21.435Z,0.91
2023-05-08T02:18:24.499Z,0.97
2023-05-08T02:19:27.480Z,0.90
2023-05-08T02:20:30.559Z,1.33
2023-05-08T02:21:33.838Z,0.92
2023-05-08T02:22:37.591Z,0.92
2023-05-08T02:23:40.621Z,0.94
2023-05-08T02:24:43.280Z,0.85
2023-05-08T02:25:46.156Z,0.78
2023-05-08T02:26:49.243Z,0.95
2023-05-08T02:27:54.184Z,1.02
2023-05-08T02:28:57.241Z,1.07
2023-05-08T02:30:00.282Z,0.82
2023-05-08T02:31:04.115Z,1.07
2023-05-08T02:32:08.092Z,1.02
2023-05-08T02:33:11.028Z,1.02
2023-05-08T02:34:13.659Z,0.88
2023-05-08T02:35:16.451Z,0.84
2023-05-08T02:36:19.056Z,0.80
2023-05-08T02:37:21.976Z,0.82
2023-05-08T02:38:24.659Z,1.10
2023-05-08T02:39:27.428Z,1.10
2023-05-08T02:40:30.103Z,1.15
2023-05-08T02:41:32.792Z,0.90
2023-05-08T02:42:35.525Z,1.09
2023-05-08T02:43:38.200Z,0.94
2023-05-08T02:44:41.068Z,1.08
2023-05-08T02:45:44.056Z,1.05
2023-05-08T02:46:47.024Z,1.45
2023-05-08T02:47:50.004Z,1.36
2023-05-08T02:48:52.882Z,0.77
2023-05-08T02:49:55.958Z,0.85
2023-05-08T02:50:59.150Z,0.82
2023-05-08T02:52:02.014Z,0.81
2023-05-08T02:53:04.990Z,0.74
2023-05-08T02:54:08.192Z,0.73
2023-05-08T02:55:10.961Z,1.01
2023-05-08T02:56:13.822Z,0.94
2023-05-08T02:57:16.802Z,0.82
2023-05-08T02:58:19.479Z,0.78
2023-05-08T02:59:22.344Z,1.01
2023-05-08T03:00:25.130Z,1.09
2023-05-08T03:01:27.826Z,1.25
2023-05-08T03:02:30.639Z,1.02
2023-05-08T03:03:33.570Z,1.24
2023-05-08T03:04:36.726Z,1.32
2023-05-08T03:05:39.595Z,1.15
2023-05-08T03:06:42.376Z,1.14
2023-05-08T03:07:45.142Z,1.25
2023-05-08T03:08:48.519Z,0.87
2023-05-08T03:09:51.604Z,1.24
2023-05-08T03:10:54.785Z,1.31
2023-05-08T03:11:57.866Z,1.08
2023-05-08T03:13:00.651Z,1.16
2023-05-08T03:14:03.606Z,0.82
2023-05-08T03:15:06.688Z,0.96
2023-05-08T03:16:09.828Z,1.04
2023-05-08T03:17:12.744Z,1.14
2023-05-08T03:18:16.023Z,1.24
2023-05-08T03:19:20.834Z,1.40
2023-05-08T03:20:23.924Z,1.79
2023-05-08T03:21:26.915Z,2.49
2023-05-08T03:22:29.893Z,1.52
2023-05-08T03:23:32.654Z,1.38
2023-05-08T03:24:35.531Z,1.38
2023-05-08T03:25:38.664Z,1.22
2023-05-08T03:26:41.590Z,1.28
2023-05-08T03:27:44.567Z,1.66
2023-05-08T03:28:47.539Z,1.66
2023-05-08T03:29:50.411Z,1.59
2023-05-08T03:30:53.414Z,1.50
2023-05-08T03:31:56.272Z,1.20
2023-05-08T03:32:59.209Z,1.22
2023-05-08T03:34:02.114Z,1.44
2023-05-08T03:35:05.091Z,1.35
2023-05-08T03:36:07.761Z,1.60
2023-05-08T03:37:10.432Z,1.42
2023-05-08T03:39:29.498Z,1.61
2023-05-08T03:40:32.366Z,1.39
2023-05-08T03:41:35.246Z,1.62
2023-05-08T03:42:38.111Z,1.50
2023-05-08T03:43:41.202Z,1.57
2023-05-08T03:44:43.967Z,1.63
2023-05-08T03:45:46.946Z,1.98
2023-05-08T03:48:05.948Z,1.69
2023-05-08T03:49:08.809Z,1.63
2023-05-08T03:50:11.902Z,1.80
2023-05-08T03:51:15.347Z,1.99
2023-05-08T03:52:18.335Z,1.42
2023-05-08T03:53:21.198Z,1.45
2023-05-08T03:54:24.072Z,1.76
2023-05-08T03:55:27.055Z,1.78
2023-05-08T03:56:29.834Z,1.29
2023-05-08T03:57:32.594Z,1.20
2023-05-08T03:59:46.340Z,1.03
2023-05-08T04:00:49.550Z,0.79
2023-05-08T04:01:52.409Z,0.87
2023-05-08T04:02:55.404Z,1.23
2023-05-08T04:03:58.376Z,2.35
2023-05-08T04:06:14.728Z,1.10
2023-05-08T04:07:17.520Z,1.04
2023-05-08T04:08:20.190Z,1.07
2023-05-08T04:09:23.273Z,1.09
2023-05-08T04:10:26.357Z,1.38
2023-05-08T04:11:29.323Z,1.42
2023-05-08T04:12:32.412Z,1.30
2023-05-08T04:13:35.486Z,1.25
2023-05-08T04:15:55.260Z,1.52
2023-05-08T04:16:58.309Z,1.59
2023-05-08T04:18:01.267Z,1.56
2023-05-08T04:19:04.149Z,1.08
2023-05-08T04:20:07.178Z,1.06
2023-05-08T04:21:10.149Z,1.20
2023-05-08T04:22:13.368Z,1.32
2023-05-08T04:23:16.421Z,1.05
2023-05-08T04:24:19.701Z,1.18
2023-05-08T04:26:38.353Z,1.20
2023-05-08T04:27:42.229Z,1.41
2023-05-08T04:28:45.427Z,1.67
2023-05-08T04:29:49.020Z,1.28
2023-05-08T04:30:51.900Z,1.17
2023-05-08T04:31:55.546Z,1.04
2023-05-08T04:32:58.628Z,0.83
2023-05-08T04:34:01.766Z,1.12
2023-05-08T04:36:20.920Z,1.45
2023-05-08T04:37:23.583Z,1.55
2023-05-08T04:38:26.250Z,0.95
2023-05-08T04:39:28.921Z,1.00
2023-05-08T04:40:31.700Z,0.93
2023-05-08T04:41:34.673Z,1.15
2023-05-08T04:42:37.342Z,1.18
2023-05-08T04:44:56.106Z,1.45
2023-05-08T04:45:58.906Z,1.41
2023-05-08T04:47:02.070Z,1.47
2023-05-08T04:48:05.595Z,1.38
2023-05-08T04:49:08.946Z,1.27
2023-05-08T04:50:11.699Z,1.15
2023-05-08T04:51:14.372Z,1.28
2023-05-08T04:52:17.149Z,1.22
2023-05-08T04:54:30.161Z,1.55
2023-05-08T04:56:45.955Z,1.61
2023-05-08T04:57:48.635Z,1.59
2023-05-08T04:58:51.387Z,1.48
2023-05-08T04:59:54.068Z,1.39
2023-05-08T05:00:56.634Z,1.47
2023-05-08T05:01:59.420Z,1.68
2023-05-08T05:03:02.240Z,1.62
2023-05-08T05:04:04.914Z,1.37
2023-05-08T05:05:07.726Z,2.08
2023-05-08T05:06:10.485Z,1.49
2023-05-08T05:07:13.055Z,1.23
2023-05-08T05:08:15.716Z,1.36
2023-05-08T05:09:18.395Z,1.39
2023-05-08T05:10:20.979Z,1.24
2023-05-08T05:11:23.526Z,1.35
2023-05-08T05:12:26.205Z,1.17
2023-05-08T05:13:29.290Z,1.25
2023-05-08T05:14:32.252Z,1.52
2023-05-08T05:15:35.143Z,1.22
2023-05-08T05:16:38.102Z,1.09
2023-05-08T05:17:41.147Z,1.74
2023-05-08T05:18:43.747Z,1.21
2023-05-08T05:19:46.421Z,0.99
2023-05-08T05:20:49.506Z,1.18
2023-05-08T05:21:52.371Z,1.11
2023-05-08T05:22:55.475Z,1.07
2023-05-08T05:23:58.243Z,1.28
2023-05-08T05:25:01.101Z,1.06
2023-05-08T05:26:03.874Z,1.02
2023-05-08T05:27:06.858Z,1.12
2023-05-08T05:28:09.929Z,1.30
2023-05-08T05:29:12.814Z,1.07
2023-05-08T05:30:15.785Z,1.28
2023-05-08T05:31:18.632Z,1.75
2023-05-08T05:32:21.457Z,1.21
2023-05-08T05:33:24.517Z,1.27
2023-05-08T05:34:27.288Z,1.39
2023-05-08T05:35:30.152Z,1.32
2023-05-08T05:36:32.924Z,1.44
2023-05-08T05:37:35.921Z,1.52
2023-05-08T05:38:38.778Z,1.24
2023-05-08T05:39:41.560Z,1.37
2023-05-08T05:40:44.212Z,1.58
2023-05-08T05:41:46.992Z,1.40
2023-05-08T05:42:49.867Z,1.47
2023-05-08T05:43:52.991Z,1.48
2023-05-08T05:44:55.825Z,1.52
2023-05-08T05:45:58.597Z,1.34
2023-05-08T05:47:01.189Z,2.04
2023-05-08T05:48:03.864Z,1.61
2023-05-08T05:49:06.605Z,1.22
2023-05-08T05:50:09.319Z,1.45
2023-05-08T05:51:11.948Z,1.74
2023-05-08T05:52:14.608Z,1.91
2023-05-08T05:53:17.394Z,1.52
2023-05-08T05:54:20.353Z,1.20
2023-05-08T05:55:23.031Z,1.57
2023-05-08T05:56:26.002Z,1.45
2023-05-08T05:57:28.878Z,2.23
2023-05-08T05:58:31.445Z,2.28
2023-05-08T05:59:34.424Z,1.89
2023-05-08T06:00:37.306Z,1.98
2023-05-08T06:01:40.193Z,1.99
2023-05-08T06:02:43.228Z,2.08
2023-05-08T06:03:46.249Z,1.63
2023-05-08T06:04:49.192Z,1.42
2023-05-08T06:05:52.077Z,1.50
2023-05-08T06:06:54.758Z,1.74
2023-05-08T06:07:57.425Z,1.67
2023-05-08T06:08:59.983Z,1.52
2023-05-08T06:10:02.857Z,1.55
2023-05-08T06:11:05.629Z,1.30
2023-05-08T06:12:08.311Z,1.36
2023-05-08T06:13:10.917Z,1.60
2023-05-08T06:14:13.549Z,1.43
2023-05-08T06:15:16.233Z,1.36
2023-05-08T06:16:18.942Z,1.62
2023-05-08T06:17:21.614Z,1.46
2023-05-08T06:18:24.214Z,1.72
2023-05-08T06:19:26.990Z,1.56
2023-05-08T06:20:30.082Z,1.69
2023-05-08T06:21:32.853Z,1.43
2023-05-08T06:22:35.713Z,1.47
2023-05-08T06:23:39.011Z,1.71
2023-05-08T06:24:41.775Z,1.64
2023-05-08T06:25:44.857Z,1.52
2023-05-08T06:26:47.730Z,1.52
2023-05-08T06:27:51.016Z,1.78
2023-05-08T06:28:53.895Z,1.82
2023-05-08T06:29:56.762Z,1.58
2023-05-08T06:30:59.858Z,1.67
2023-05-08T06:32:02.944Z,1.54
2023-05-08T06:33:05.923Z,1.75
2023-05-08T06:34:08.773Z,1.65
2023-05-08T06:35:11.749Z,1.68
2023-05-08T06:36:14.451Z,1.97
2023-05-08T06:37:17.091Z,1.82
2023-05-08T06:38:19.859Z,1.52
2023-05-08T06:39:22.432Z,1.85
2023-05-08T06:40:24.994Z,1.71
2023-05-08T06:41:28.091Z,1.53
2023-05-08T06:42:30.755Z,1.32
2023-05-08T06:43:33.522Z,1.42
2023-05-08T06:44:36.192Z,1.87
2023-05-08T06:45:38.967Z,1.48
2023-05-08T06:46:42.221Z,1.73
2023-05-08T06:47:45.163Z,1.59
2023-05-08T06:48:48.001Z,1.62
2023-05-08T06:49:50.889Z,1.86
2023-05-08T06:50:53.743Z,1.57
2023-05-08T06:51:58.134Z,1.68
2023-05-08T06:53:01.130Z,1.71
2023-05-08T06:54:04.006Z,1.68
2023-05-08T06:55:06.681Z,1.55
2023-05-08T06:56:09.551Z,1.45
2023-05-08T06:57:13.824Z,1.50
2023-05-08T06:58:16.855Z,1.92
2023-05-08T06:59:19.509Z,1.68
2023-05-08T07:00:22.490Z,1.31
2023-05-08T07:01:25.599Z,1.42
2023-05-08T07:02:28.891Z,1.57
2023-05-08T07:03:31.521Z,1.88
2023-05-08T07:04:34.627Z,1.48
2023-05-08T07:05:37.271Z,1.85
2023-05-08T07:06:39.858Z,1.75
2023-05-08T07:07:43.029Z,1.52
2023-05-08T07:08:46.093Z,1.48
2023-05-08T07:09:49.185Z,1.39
2023-05-08T07:10:52.150Z,1.53
2023-05-08T07:11:56.048Z,1.65
2023-05-08T07:12:58.778Z,1.52
2023-05-08T07:14:01.389Z,1.35
2023-05-08T07:15:13.956Z,1.71
2023-05-08T07:16:08.647Z,1.55
2023-05-08T07:17:11.354Z,1.68
2023-05-08T07:18:14.108Z,1.49
2023-05-08T07:19:16.789Z,1.50
2023-05-08T07:20:19.460Z,1.55
2023-05-08T07:21:22.132Z,1.38
2023-05-08T07:22:24.837Z,1.43
2023-05-08T07:23:27.588Z,1.21
2023-05-08T07:24:30.244Z,1.55
2023-05-08T07:25:32.922Z,1.30
2023-05-08T07:26:35.586Z,1.34
2023-05-08T07:27:38.148Z,1.58
2023-05-08T07:28:40.814Z,1.26
2023-05-08T07:29:43.914Z,0.92
2023-05-08T07:30:46.462Z,1.25
2023-05-08T07:31:49.202Z,1.14
2023-05-08T07:32:51.882Z,1.34
2023-05-08T07:33:54.482Z,1.37
2023-05-08T07:34:57.046Z,1.12
2023-05-08T07:35:59.714Z,1.24
2023-05-08T07:37:02.379Z,1.47
2023-05-08T07:38:04.953Z,1.26
2023-05-08T07:39:07.923Z,1.22
2023-05-08T07:40:10.591Z,1.48
2023-05-08T07:41:13.409Z,1.73
2023-05-08T07:42:16.135Z,1.50
2023-05-08T07:43:18.822Z,1.33
2023-05-08T07:44:21.886Z,1.55
2023-05-08T07:45:24.553Z,1.34
2023-05-08T07:46:27.283Z,1.46
2023-05-08T07:47:29.915Z,1.51
2023-05-08T07:48:32.574Z,1.44
2023-05-08T07:49:35.445Z,1.33
2023-05-08T07:50:38.001Z,1.41
2023-05-08T07:51:40.677Z,1.54
2023-05-08T07:52:43.246Z,1.48
2023-05-08T07:53:45.911Z,1.45
2023-05-08T07:54:48.576Z,1.40
2023-05-08T07:55:51.144Z,1.75
2023-05-08T07:56:53.818Z,1.58
2023-05-08T07:57:56.704Z,1.69
2023-05-08T07:58:59.577Z,1.74
2023-05-08T08:00:02.748Z,1.55
2023-05-08T08:01:05.210Z,1.65
2023-05-08T08:02:08.232Z,1.41
2023-05-08T08:03:11.031Z,1.48
2023-05-08T08:04:15.325Z,1.38
2023-05-08T08:05:18.254Z,1.64
2023-05-08T08:06:21.118Z,1.88
2023-05-08T08:07:24.004Z,1.33
2023-05-08T08:08:29.432Z,1.52
2023-05-08T08:09:31.910Z,1.67
2023-05-08T08:10:34.977Z,1.98
2023-05-08T08:11:37.748Z,1.72
2023-05-08T08:12:40.546Z,1.74
2023-05-08T08:13:43.198Z,1.70
2023-05-08T08:14:45.658Z,1.72
2023-05-08T08:15:48.741Z,1.68
2023-05-08T08:16:51.378Z,1.98
2023-05-08T08:17:54.010Z,2.16
2023-05-08T08:18:56.648Z,2.12
2023-05-08T08:19:59.432Z,2.14
2023-05-08T08:21:02.092Z,2.11
2023-05-08T08:22:04.753Z,2.31
2023-05-08T08:23:07.424Z,2.10
2023-05-08T08:24:10.198Z,1.90
2023-05-08T08:25:13.027Z,2.02
2023-05-08T08:26:15.950Z,1.90
2023-05-08T08:27:18.926Z,1.99
2023-05-08T08:28:22.007Z,1.97
2023-05-08T08:29:24.925Z,1.79
2023-05-08T08:30:27.766Z,1.82
2023-05-08T08:31:30.772Z,1.96
2023-05-08T08:32:33.930Z,1.97
2023-05-08T08:33:36.896Z,1.74
2023-05-08T08:34:39.761Z,2.01
2023-05-08T08:35:42.654Z,1.90
2023-05-08T08:36:45.822Z,1.82
2023-05-08T08:37:48.799Z,2.19
2023-05-08T08:38:51.487Z,1.96
2023-05-08T08:39:54.131Z,1.83
2023-05-08T08:40:57.023Z,1.83
2023-05-08T08:41:59.788Z,1.77
2023-05-08T08:43:02.668Z,1.71
2023-05-08T08:44:05.738Z,1.80
2023-05-08T08:45:08.645Z,1.69
2023-05-08T08:46:11.921Z,1.83
2023-05-08T08:47:15.076Z,1.72
2023-05-08T08:48:18.155Z,1.75
2023-05-08T08:49:20.727Z,1.77
2023-05-08T08:50:23.580Z,1.84
2023-05-08T08:51:26.277Z,1.78
2023-05-08T08:52:29.472Z,1.74
2023-05-08T08:53:32.248Z,1.75
2023-05-08T08:54:34.999Z,1.59
2023-05-08T08:55:37.873Z,1.45
2023-05-08T08:56:40.748Z,1.85
2023-05-08T08:57:43.623Z,1.72
2023-05-08T08:58:46.308Z,1.59
2023-05-08T08:59:49.176Z,1.91
2023-05-08T09:00:52.152Z,1.86
2023-05-08T09:01:54.942Z,1.56
2023-05-08T09:02:58.051Z,1.46
2023-05-08T09:04:00.928Z,1.43
2023-05-08T09:05:03.948Z,1.58
2023-05-08T09:06:06.822Z,1.59
2023-05-08T09:07:09.696Z,1.55
2023-05-08T09:08:12.823Z,1.93
2023-05-08T09:09:15.756Z,1.85
2023-05-08T09:10:18.441Z,1.80
2023-05-08T09:11:21.297Z,1.90
2023-05-08T09:12:24.277Z,1.75
2023-05-08T09:13:27.291Z,1.75
2023-05-08T09:14:30.133Z,1.57
2023-05-08T09:15:33.414Z,1.61
2023-05-08T09:16:36.330Z,1.55
2023-05-08T09:17:38.986Z,1.73
2023-05-08T09:18:41.731Z,1.95
2023-05-08T09:19:44.295Z,1.85
2023-05-08T09:20:47.064Z,1.74
2023-05-08T09:21:49.736Z,1.81
2023-05-08T09:22:52.402Z,2.03
2023-05-08T09:23:55.077Z,1.87
2023-05-08T09:24:57.746Z,1.94
2023-05-08T09:26:00.424Z,1.92
2023-05-08T09:27:03.293Z,2.05
2023-05-08T09:28:06.265Z,2.13
2023-05-08T09:29:09.359Z,1.84
2023-05-08T09:30:12.226Z,1.88
2023-05-08T09:31:15.159Z,1.86
2023-05-08T09:32:18.057Z,1.98
2023-05-08T09:33:20.640Z,1.98
2023-05-08T09:34:23.631Z,1.78
2023-05-08T09:35:26.503Z,1.99
2023-05-08T09:36:29.279Z,1.99
2023-05-08T09:37:32.249Z,2.09
2023-05-08T09:38:35.142Z,2.05
2023-05-08T09:39:38.196Z,1.88
2023-05-08T09:40:40.980Z,1.77
2023-05-08T09:41:43.639Z,1.96
2023-05-08T09:42:46.403Z,2.19
2023-05-08T09:43:49.182Z,1.98
2023-05-08T09:44:52.084Z,2.35
2023-05-08T09:45:54.727Z,2.08
2023-05-08T09:46:57.293Z,1.48
2023-05-08T09:48:00.031Z,1.68
2023-05-08T09:49:02.646Z,1.65
2023-05-08T09:50:05.369Z,1.62
2023-05-08T09:51:07.977Z,2.04
2023-05-08T09:52:10.797Z,1.80
2023-05-08T09:53:13.526Z,1.57
2023-05-08T09:54:16.083Z,1.53
2023-05-08T09:55:18.852Z,1.32
2023-05-08T09:56:21.425Z,1.32
2023-05-08T09:57:24.092Z,1.57
2023-05-08T09:58:26.912Z,1.52
2023-05-08T09:59:31.802Z,1.18
2023-05-08T10:00:34.355Z,1.22
2023-05-08T10:01:37.305Z,1.09
2023-05-08T10:02:40.240Z,1.12
2023-05-08T10:03:43.113Z,1.21
2023-05-08T10:04:46.091Z,1.18
2023-05-08T10:05:49.241Z,1.28
2023-05-08T10:06:53.621Z,1.22
2023-05-08T10:07:56.733Z,1.23
2023-05-08T10:08:59.621Z,1.28
2023-05-08T10:10:02.197Z,1.30
2023-05-08T10:11:05.251Z,1.28
2023-05-08T10:12:07.928Z,1.23
2023-05-08T10:13:10.505Z,1.23
2023-05-08T10:14:13.161Z,1.30
2023-05-08T10:15:15.836Z,1.10
2023-05-08T10:16:18.553Z,1.13
2023-05-08T10:17:21.266Z,1.01
2023-05-08T10:18:23.958Z,1.27
2023-05-08T10:19:26.616Z,1.21
2023-05-08T10:20:29.396Z,1.13
2023-05-08T10:21:32.156Z,1.22
2023-05-08T10:22:34.833Z,1.32
2023-05-08T10:23:37.394Z,1.20
2023-05-08T10:24:40.273Z,1.08
2023-05-08T10:25:42.947Z,1.10
2023-05-08T10:26:57.186Z,1.25
2023-05-08T10:27:49.817Z,1.14
2023-05-08T10:28:52.380Z,1.40
2023-05-08T10:29:55.364Z,1.22
2023-05-08T10:30:58.165Z,1.12
2023-05-08T10:32:00.821Z,1.23
2023-05-08T10:33:03.802Z,1.39
2023-05-08T10:34:06.655Z,1.56
2023-05-08T10:35:10.262Z,1.42
2023-05-08T10:36:13.121Z,1.31
2023-05-08T10:37:16.117Z,1.25
2023-05-08T10:38:19.080Z,1.59
2023-05-08T10:39:21.957Z,1.38
2023-05-08T10:40:24.948Z,1.13
2023-05-08T10:41:27.930Z,1.21
2023-05-08T10:42:31.816Z,1.28
2023-05-08T10:43:34.678Z,1.16
2023-05-08T10:44:37.559Z,1.26
2023-05-08T10:45:40.902Z,1.29
2023-05-08T10:46:43.602Z,1.18
2023-05-08T10:47:46.844Z,1.09
2023-05-08T10:48:49.875Z,0.90
2023-05-08T10:49:53.485Z,1.21
2023-05-08T10:50:57.626Z,1.21
2023-05-08T10:52:00.459Z,1.11
2023-05-08T10:53:03.426Z,1.37
2023-05-08T10:54:06.196Z,1.11
2023-05-08T10:55:08.867Z,1.22
2023-05-08T10:56:12.249Z,0.93
2023-05-08T10:57:15.429Z,1.22
2023-05-08T10:58:18.404Z,1.10
2023-05-08T10:59:21.427Z,0.98
2023-05-08T11:00:24.469Z,1.09
2023-05-08T11:01:27.861Z,1.10
2023-05-08T11:02:30.757Z,1.06
2023-05-08T11:03:33.926Z,0.99
2023-05-08T11:04:36.704Z,1.14
2023-05-08T11:05:39.449Z,1.11
2023-05-08T11:06:41.832Z,1.25
2023-05-08T11:07:44.577Z,1.21
2023-05-08T11:08:47.249Z,1.34
2023-05-08T11:09:49.920Z,1.10
2023-05-08T11:10:52.694Z,1.12
2023-05-08T11:11:55.460Z,1.07
2023-05-08T11:12:58.155Z,1.13
2023-05-08T11:14:09.214Z,1.40
2023-05-08T11:15:11.878Z,1.10
2023-05-08T11:16:14.587Z,1.24
2023-05-08T11:17:17.216Z,1.12
2023-05-08T11:18:19.794Z,1.30
2023-05-08T11:19:22.441Z,1.16
2023-05-08T11:20:25.232Z,1.15
2023-05-08T11:21:28.090Z,1.14
2023-05-08T11:22:30.797Z,0.95
2023-05-08T11:23:33.535Z,1.12
2023-05-08T11:24:36.424Z,1.18
2023-05-08T11:25:39.286Z,1.11
2023-05-08T11:26:42.178Z,1.15
2023-05-08T11:27:45.141Z,1.13
2023-05-08T11:28:47.908Z,1.48
2023-05-08T11:29:51.008Z,1.07
2023-05-08T11:30:53.873Z,1.32
2023-05-08T11:31:56.974Z,1.17
2023-05-08T11:33:00.005Z,1.19
2023-05-08T11:34:02.896Z,1.13
2023-05-08T11:35:05.977Z,1.25
2023-05-08T11:36:08.951Z,1.29
2023-05-08T11:37:11.938Z,1.29
2023-05-08T11:38:14.702Z,1.24
2023-05-08T11:39:17.577Z,1.27
2023-05-08T11:40:20.787Z,1.22
2023-05-08T11:41:23.948Z,1.18
2023-05-08T11:42:26.853Z,1.26
2023-05-08T11:43:29.793Z,1.03
2023-05-08T11:44:32.692Z,1.03
2023-05-08T11:45:35.965Z,1.22
2023-05-08T11:46:38.783Z,1.15
2023-05-08T11:47:41.601Z,1.08
2023-05-08T11:48:44.578Z,1.12
2023-05-08T11:49:47.450Z,1.12
2023-05-08T11:50:50.527Z,1.00
2023-05-08T11:51:53.405Z,0.95
2023-05-08T11:52:56.171Z,1.05
2023-05-08T11:53:59.051Z,1.05
2023-05-08T11:55:02.244Z,1.20
2023-05-08T11:56:05.616Z,1.07
2023-05-08T11:57:08.595Z,1.17
2023-05-08T11:58:11.474Z,1.15
2023-05-08T11:59:14.370Z,1.12
2023-05-08T12:00:17.819Z,1.06
2023-05-08T12:01:20.911Z,1.00
2023-05-08T12:02:23.754Z,0.95
2023-05-08T12:03:26.780Z,0.90
2023-05-08T12:04:29.858Z,1.08
2023-05-08T12:05:32.932Z,1.08
2023-05-08T12:06:36.316Z,0.99
2023-05-08T12:07:40.207Z,1.03
2023-05-08T12:08:43.600Z,0.97
2023-05-08T12:09:46.383Z,0.93
2023-05-08T12:10:49.144Z,1.01
2023-05-08T12:11:51.919Z,1.12
2023-05-08T12:12:54.550Z,1.22
2023-05-08T12:13:57.154Z,1.09
2023-05-08T12:14:59.720Z,1.05
2023-05-08T12:16:02.489Z,1.02
2023-05-08T12:17:06.568Z,1.12
2023-05-08T12:18:09.292Z,1.04
2023-05-08T12:19:11.950Z,1.11
2023-05-08T12:20:15.405Z,1.18
2023-05-08T12:21:18.707Z,1.43
2023-05-08T12:22:21.696Z,1.34
2023-05-08T12:23:24.452Z,1.82
2023-05-08T12:24:27.241Z,1.37
2023-05-08T12:25:30.317Z,1.35
2023-05-08T12:26:33.081Z,1.24
2023-05-08T12:27:36.277Z,1.41
2023-05-08T12:28:39.246Z,1.26
2023-05-08T12:29:42.549Z,1.29
2023-05-08T12:30:45.520Z,1.21
2023-05-08T12:31:48.204Z,1.50
2023-05-08T12:32:51.209Z,1.26
2023-05-08T12:33:53.826Z,1.29
2023-05-08T12:34:56.491Z,1.17
2023-05-08T12:35:59.158Z,1.45
2023-05-08T12:37:01.828Z,1.37
2023-05-08T12:38:04.602Z,1.26
2023-05-08T12:39:07.270Z,1.19
2023-05-08T12:40:09.965Z,1.21
2023-05-08T12:41:12.633Z,1.22
2023-05-08T12:42:15.273Z,1.01
2023-05-08T12:43:18.055Z,1.21
2023-05-08T12:44:20.723Z,1.27
2023-05-08T12:45:23.499Z,1.17
2023-05-08T12:46:26.355Z,1.27
2023-05-08T12:47:29.359Z,1.15
2023-05-08T12:48:32.233Z,1.19
2023-05-08T12:49:35.195Z,1.19
2023-05-08T12:50:38.073Z,1.41
2023-05-08T12:51:41.150Z,1.52
2023-05-08T12:52:44.036Z,1.35
2023-05-08T12:53:47.102Z,1.25
2023-05-08T12:54:50.188Z,1.29
2023-05-08T12:55:53.165Z,1.27
2023-05-08T12:56:56.041Z,1.29
2023-05-08T12:57:58.808Z,1.32
2023-05-08T12:59:01.902Z,1.28
2023-05-08T13:00:05.163Z,1.19
2023-05-08T13:01:07.957Z,1.22
2023-05-08T13:02:10.852Z,1.33
2023-05-08T13:03:13.951Z,1.08
2023-05-08T13:04:17.106Z,1.32
2023-05-08T13:05:23.269Z,1.27
2023-05-08T13:06:26.331Z,1.61
2023-05-08T13:07:29.188Z,1.85
2023-05-08T13:08:31.992Z,1.69
2023-05-08T13:09:34.834Z,1.45
2023-05-08T13:10:37.508Z,1.82
2023-05-08T13:11:40.273Z,2.68
2023-05-08T13:12:42.966Z,2.28
2023-05-08T13:13:45.511Z,1.89
2023-05-08T13:14:48.388Z,2.05
2023-05-08T13:15:51.248Z,1.69
2023-05-08T13:16:53.860Z,1.47
2023-05-08T13:17:56.459Z,1.29
2023-05-08T13:18:59.173Z,1.61
2023-05-08T13:20:05.172Z,1.37
2023-05-08T13:21:07.483Z,1.43
2023-05-08T13:22:10.356Z,1.57
2023-05-08T13:23:13.335Z,1.31
2023-05-08T13:24:16.209Z,1.17
2023-05-08T13:25:19.177Z,1.25
2023-05-08T13:26:22.074Z,1.27
2023-05-08T13:27:24.934Z,1.19
2023-05-08T13:28:28.016Z,1.35
2023-05-08T13:29:30.766Z,1.53
2023-05-08T13:30:33.875Z,1.19
2023-05-08T13:31:36.880Z,1.13
2023-05-08T13:32:40.086Z,1.31
2023-05-08T13:33:42.997Z,1.17
2023-05-08T13:34:50.732Z,1.45
2023-05-08T13:35:50.280Z,1.21
2023-05-08T13:36:53.683Z,1.11
2023-05-08T13:37:56.446Z,1.24
2023-05-08T13:38:59.212Z,1.22
2023-05-08T13:40:01.889Z,1.23
2023-05-08T13:41:04.561Z,1.17
2023-05-08T13:42:07.220Z,1.34
2023-05-08T13:43:09.891Z,1.50
2023-05-08T13:44:12.663Z,1.35
2023-05-08T13:45:15.745Z,1.18
2023-05-08T13:46:18.882Z,1.41
2023-05-08T13:47:21.519Z,1.15
2023-05-08T13:48:24.161Z,1.28
2023-05-08T13:49:26.835Z,1.18
2023-05-08T13:50:29.428Z,1.36
2023-05-08T13:51:32.073Z,1.25
2023-05-08T13:52:34.537Z,1.37
2023-05-08T13:53:37.220Z,1.14
2023-05-08T13:54:39.773Z,1.48
2023-05-08T13:55:42.453Z,1.52
2023-05-08T13:56:45.212Z,1.23
2023-05-08T13:57:47.900Z,1.22
2023-05-08T13:58:50.566Z,1.25
2023-05-08T13:59:53.237Z,1.44
2023-05-08T14:00:56.145Z,1.43
2023-05-08T14:01:59.203Z,1.07
2023-05-08T14:03:02.185Z,1.15
2023-05-08T14:04:05.076Z,1.12
2023-05-08T14:05:10.760Z,1.15
2023-05-08T14:06:13.336Z,1.27
2023-05-08T14:07:17.235Z,1.36
2023-05-08T14:08:21.134Z,1.25
2023-05-08T14:09:24.023Z,1.35
2023-05-08T14:10:26.788Z,1.15